Time;durP1;ratioP1;P1;durP2;ratioP2;P2;SDS_P1;SDS_P2;PMS_P1;PMS_P2;Temp;Humidity;BMP_temperature;BMP_pressure;BME280_temperature;BME280_humidity;BME280_pressure;Samples;Min_cycle;Max_cycle;Signal;HPM_P1;HPM_P2
2023/03/04 00:01:44;;;;;;;33.83;18.98;;;;;;;;;;4996194;28;20100;-64
2023/03/04 00:04:10;;;;;;;34.50;19.33;;;;;;;;;;4995870;28;20475;-63
2023/03/04 00:06:35;;;;;;;36.80;21.35;;;;;;;;;;4995858;28;20034;-64
2023/03/04 00:09:02;;;;;;;33.75;18.83;;;;;;;;;;5001336;28;20475;-61
2023/03/04 00:11:28;;;;;;;30.90;17.63;;;;;;;;;;4996017;28;20038;-61
2023/03/04 00:13:54;;;;;;;37.50;22.23;;;;;;;;;;4978581;28;20049;-60
2023/03/04 00:16:19;;;;;;;39.50;22.90;;;;;;;;;;4995672;28;20038;-60
2023/03/04 00:18:44;;;;;;;40.00;23.48;;;;;;;;;;4995551;28;20053;-60
2023/03/04 00:21:10;;;;;;;43.10;24.75;;;;;;;;;;4995803;28;20034;-60
2023/03/04 00:23:35;;;;;;;40.08;23.00;;;;;;;;;;4995168;28;20042;-59
2023/03/04 00:26:00;;;;;;;41.80;23.67;;;;;;;;;;4995748;28;20058;-60
2023/03/04 00:28:26;;;;;;;37.78;22.05;;;;;;;;;;4995171;28;20118;-60
2023/03/04 00:30:52;;;;;;;40.20;21.90;;;;;;;;;;5015015;28;20052;-60
2023/03/04 00:33:17;;;;;;;32.92;18.08;;;;;;;;;;5005675;28;20031;-60
2023/03/04 00:35:42;;;;;;;32.35;19.35;;;;;;;;;;4995485;28;20444;-60
2023/03/04 00:38:08;;;;;;;37.63;21.85;;;;;;;;;;4995647;28;20037;-61
2023/03/04 00:40:34;;;;;;;33.20;19.20;;;;;;;;;;4995628;28;20043;-60
2023/03/04 00:42:59;;;;;;;34.67;20.25;;;;;;;;;;4995441;28;20097;-59
2023/03/04 00:45:25;;;;;;;32.08;17.85;;;;;;;;;;4995387;28;20101;-57
2023/03/04 00:47:50;;;;;;;32.45;18.08;;;;;;;;;;4980530;28;20034;-57
2023/03/04 00:50:15;;;;;;;32.53;18.30;;;;;;;;;;5015044;28;20482;-58
2023/03/04 00:52:41;;;;;;;34.45;20.38;;;;;;;;;;4996943;28;20042;-57
2023/03/04 00:55:07;;;;;;;32.83;18.55;;;;;;;;;;5015047;28;20033;-57
2023/03/04 00:57:32;;;;;;;31.67;19.55;;;;;;;;;;5014755;28;20046;-57
2023/03/04 00:59:57;;;;;;;35.65;22.00;;;;;;;;;;5014760;28;20037;-58
2023/03/04 01:02:22;;;;;;;24.83;14.15;;;;;;;;;;5013626;28;20488;-63
2023/03/04 01:04:48;;;;;;;26.85;16.63;;;;;;;;;;5014650;28;20034;-63
2023/03/04 01:07:14;;;;;;;30.23;19.13;;;;;;;;;;4980354;28;20026;-63
2023/03/04 01:09:39;;;;;;;29.75;19.08;;;;;;;;;;5013781;28;20041;-63
2023/03/04 01:12:04;;;;;;;30.13;18.45;;;;;;;;;;4980135;28;20065;-57
2023/03/04 01:14:30;;;;;;;32.05;19.17;;;;;;;;;;4977152;28;20046;-57
2023/03/04 01:16:55;;;;;;;36.80;21.20;;;;;;;;;;5005298;28;20053;-57
2023/03/04 01:19:21;;;;;;;36.25;20.13;;;;;;;;;;5014440;28;20145;-57
2023/03/04 01:21:46;;;;;;;34.13;19.45;;;;;;;;;;4996410;28;20076;-57
2023/03/04 01:24:11;;;;;;;30.60;18.15;;;;;;;;;;5014728;28;20430;-57
2023/03/04 01:26:39;;;;;;;30.20;17.98;;;;;;;;;;5004487;28;20031;-58
2023/03/04 01:29:04;;;;;;;30.77;17.80;;;;;;;;;;4994583;28;20054;-57
2023/03/04 01:31:29;;;;;;;24.73;15.13;;;;;;;;;;4994371;28;20058;-57
2023/03/04 01:33:55;;;;;;;29.50;18.98;;;;;;;;;;4994852;28;20034;-57
2023/03/04 01:36:20;;;;;;;30.77;18.40;;;;;;;;;;4994572;28;20379;-57
2023/03/04 01:38:46;;;;;;;30.30;19.15;;;;;;;;;;4994572;28;20041;-57
2023/03/04 01:41:12;;;;;;;36.55;21.48;;;;;;;;;;4976858;28;20042;-57
2023/03/04 01:43:37;;;;;;;37.30;21.98;;;;;;;;;;4994004;28;20482;-62
2023/03/04 01:46:03;;;;;;;31.45;19.13;;;;;;;;;;4994397;28;20100;-62
2023/03/04 01:48:35;;;;;;;34.13;20.10;;;;;;;;;;4976629;28;20543;-62
2023/03/04 01:51:04;;;;;;;35.45;19.98;;;;;;;;;;4977592;28;20038;-62
2023/03/04 01:53:30;;;;;;;35.58;21.23;;;;;;;;;;4979344;28;20049;-62
2023/03/04 01:55:56;;;;;;;35.58;19.65;;;;;;;;;;5013982;28;20034;-62
2023/03/04 01:58:24;;;;;;;43.10;24.25;;;;;;;;;;4996763;28;20050;-63
2023/03/04 02:00:49;;;;;;;31.92;18.52;;;;;;;;;;4996538;28;20100;-63
2023/03/04 02:03:18;;;;;;;30.30;16.63;;;;;;;;;;5013938;28;20034;-63
2023/03/04 02:05:45;;;;;;;35.55;19.67;;;;;;;;;;5013879;28;20049;-63
2023/03/04 02:08:11;;;;;;;37.55;20.50;;;;;;;;;;5012747;28;20038;-57
2023/03/04 02:10:37;;;;;;;36.60;20.63;;;;;;;;;;5013610;28;20032;-57
2023/03/04 02:13:04;;;;;;;37.97;21.50;;;;;;;;;;4985266;28;20053;-62
2023/03/04 02:15:29;;;;;;;32.33;19.02;;;;;;;;;;4976394;28;20042;-62
2023/03/04 02:17:55;;;;;;;32.88;17.73;;;;;;;;;;4994194;28;20117;-62
2023/03/04 02:20:36;;;;;;;39.65;23.13;;;;;;;;;;4983282;28;20045;-62
2023/03/04 02:23:13;;;;;;;32.47;17.48;;;;;;;;;;5008693;28;20042;-57
2023/03/04 02:25:50;;;;;;;36.78;21.05;;;;;;;;;;4998289;28;20097;-56
2023/03/04 02:28:16;;;;;;;24.20;14.65;;;;;;;;;;4980160;28;20049;-57
2023/03/04 02:30:41;;;;;;;30.13;17.13;;;;;;;;;;4980419;28;20126;-57
2023/03/04 02:33:12;;;;;;;27.05;16.13;;;;;;;;;;4979608;28;20085;-57
2023/03/04 02:35:38;;;;;;;28.40;17.13;;;;;;;;;;4997940;28;20042;-57
2023/03/04 02:38:03;;;;;;;30.42;18.55;;;;;;;;;;4979995;28;20120;-57
2023/03/04 02:40:32;;;;;;;26.30;15.55;;;;;;;;;;4983325;28;20535;-57
2023/03/04 02:42:59;;;;;;;26.20;16.33;;;;;;;;;;4999437;28;20037;-57
2023/03/04 02:45:30;;;;;;;24.23;15.05;;;;;;;;;;5017271;28;20516;-57
2023/03/04 02:47:56;;;;;;;22.60;14.80;;;;;;;;;;4999233;28;20034;-57
2023/03/04 02:50:21;;;;;;;27.20;16.60;;;;;;;;;;4984291;28;20092;-57
2023/03/04 02:52:47;;;;;;;27.08;16.23;;;;;;;;;;4997495;28;20446;-57
2023/03/04 02:55:12;;;;;;;26.13;16.50;;;;;;;;;;4979779;28;20042;-57
2023/03/04 02:57:37;;;;;;;27.73;16.73;;;;;;;;;;4997405;28;20052;-57
2023/03/04 03:00:03;;;;;;;31.88;18.00;;;;;;;;;;4979608;28;20410;-57
2023/03/04 03:02:28;;;;;;;33.65;19.20;;;;;;;;;;4979544;28;20070;-57
2023/03/04 03:04:55;;;;;;;26.77;14.70;;;;;;;;;;4982188;28;20030;-62
2023/03/04 03:07:21;;;;;;;25.70;14.95;;;;;;;;;;4999564;28;20458;-62
2023/03/04 03:09:47;;;;;;;26.08;15.18;;;;;;;;;;4999147;28;20033;-62
2023/03/04 03:12:12;;;;;;;28.10;16.92;;;;;;;;;;5016672;28;20038;-62
2023/03/04 03:14:38;;;;;;;24.60;15.35;;;;;;;;;;4998969;28;20030;-62
2023/03/04 03:17:04;;;;;;;30.33;16.40;;;;;;;;;;4998777;28;20038;-62
2023/03/04 03:19:30;;;;;;;29.23;15.65;;;;;;;;;;4990642;28;20084;-62
2023/03/04 03:21:55;;;;;;;27.13;15.35;;;;;;;;;;4998701;28;20042;-62
2023/03/04 03:24:21;;;;;;;24.63;14.93;;;;;;;;;;5015901;28;20053;-62
2023/03/04 03:26:46;;;;;;;22.92;14.23;;;;;;;;;;5016485;28;20044;-62
2023/03/04 03:29:13;;;;;;;31.10;16.20;;;;;;;;;;4999001;28;20390;-62
2023/03/04 03:31:38;;;;;;;28.13;15.95;;;;;;;;;;4997667;28;20034;-62
2023/03/04 03:34:03;;;;;;;22.63;14.20;;;;;;;;;;4989316;28;20049;-62
2023/03/04 03:36:29;;;;;;;27.38;17.48;;;;;;;;;;4978989;28;20034;-62
2023/03/04 03:38:54;;;;;;;27.55;15.82;;;;;;;;;;4996332;28;20034;-62
2023/03/04 03:41:19;;;;;;;26.65;16.25;;;;;;;;;;4996632;28;20129;-61
2023/03/04 03:43:44;;;;;;;27.75;16.17;;;;;;;;;;4996263;28;20038;-61
2023/03/04 03:46:10;;;;;;;29.75;17.83;;;;;;;;;;4979311;28;20039;-61
2023/03/04 03:48:35;;;;;;;27.77;16.90;;;;;;;;;;4978604;28;20123;-57
2023/03/04 03:51:00;;;;;;;28.38;16.60;;;;;;;;;;4978723;28;20026;-57
2023/03/04 03:53:26;;;;;;;26.42;16.42;;;;;;;;;;4996357;28;20435;-56
2023/03/04 03:55:51;;;;;;;29.70;15.13;;;;;;;;;;4996073;28;20042;-56
2023/03/04 03:58:16;;;;;;;31.17;17.83;;;;;;;;;;4995861;28;20038;-56
2023/03/04 04:00:42;;;;;;;27.65;16.55;;;;;;;;;;4995561;28;20084;-57
2023/03/04 04:03:10;;;;;;;31.58;19.15;;;;;;;;;;4995829;28;20035;-57
2023/03/04 04:05:35;;;;;;;27.52;16.02;;;;;;;;;;4995890;28;20118;-57
2023/03/04 04:08:01;;;;;;;31.88;17.88;;;;;;;;;;4995831;28;20046;-61
2023/03/04 04:10:26;;;;;;;28.80;17.38;;;;;;;;;;4979154;28;20036;-61
2023/03/04 04:12:51;;;;;;;22.00;13.68;;;;;;;;;;5015389;28;20042;-62
2023/03/04 04:15:17;;;;;;;21.08;13.25;;;;;;;;;;4997980;28;20400;-62
2023/03/04 04:17:42;;;;;;;23.92;14.25;;;;;;;;;;5002938;28;20030;-62
2023/03/04 04:20:08;;;;;;;19.38;12.82;;;;;;;;;;4995889;28;20118;-62
2023/03/04 04:22:33;;;;;;;22.95;14.07;;;;;;;;;;4995522;28;20035;-62
2023/03/04 04:24:59;;;;;;;20.33;12.45;;;;;;;;;;4995747;28;20125;-62
2023/03/04 04:27:24;;;;;;;17.17;11.68;;;;;;;;;;5007101;28;20044;-57
2023/03/04 04:29:49;;;;;;;21.55;13.57;;;;;;;;;;5015467;28;20040;-57
2023/03/04 04:32:15;;;;;;;20.17;12.95;;;;;;;;;;4997416;28;20023;-57
2023/03/04 04:34:40;;;;;;;22.13;13.10;;;;;;;;;;5014940;28;20496;-57
2023/03/04 04:37:05;;;;;;;26.58;16.45;;;;;;;;;;5003516;28;20038;-57
2023/03/04 04:39:31;;;;;;;20.00;12.55;;;;;;;;;;4995535;28;20186;-57
2023/03/04 04:42:02;;;;;;;16.58;10.82;;;;;;;;;;5016426;23;20057;31
2023/03/04 04:44:28;;;;;;;16.65;10.57;;;;;;;;;;4989395;23;20054;-57
2023/03/04 04:46:53;;;;;;;16.33;10.88;;;;;;;;;;4994866;28;20537;-57
2023/03/04 04:49:26;;;;;;;19.20;11.82;;;;;;;;;;4995548;28;20081;-57
2023/03/04 04:51:51;;;;;;;15.73;11.38;;;;;;;;;;4995577;28;20031;-57
2023/03/04 04:54:16;;;;;;;13.93;10.15;;;;;;;;;;4977529;28;20030;-57
2023/03/04 04:56:42;;;;;;;14.88;9.60;;;;;;;;;;4994959;28;20074;-57
2023/03/04 04:59:07;;;;;;;14.95;10.57;;;;;;;;;;4993518;28;20041;-62
2023/03/04 05:01:33;;;;;;;16.73;11.05;;;;;;;;;;4977467;28;20033;-62
2023/03/04 05:03:58;;;;;;;15.38;10.23;;;;;;;;;;4987166;28;20054;-62
2023/03/04 05:06:24;;;;;;;15.43;11.00;;;;;;;;;;4994588;28;20038;-57
2023/03/04 05:08:50;;;;;;;16.38;11.48;;;;;;;;;;4994899;28;20073;-57
2023/03/04 05:11:15;;;;;;;16.08;11.43;;;;;;;;;;4994979;28;20122;-57
2023/03/04 05:13:41;;;;;;;15.32;12.05;;;;;;;;;;4994664;28;20097;-57
2023/03/04 05:16:07;;;;;;;18.85;12.23;;;;;;;;;;4993344;28;20034;-57
2023/03/04 05:18:32;;;;;;;21.95;13.38;;;;;;;;;;4994858;28;20084;-57
2023/03/04 05:20:59;;;;;;;16.73;10.98;;;;;;;;;;4991027;28;20498;-57
2023/03/04 05:23:25;;;;;;;15.93;11.70;;;;;;;;;;4995130;28;20050;-58
2023/03/04 05:25:52;;;;;;;20.33;12.98;;;;;;;;;;4994379;28;20081;-58
2023/03/04 05:28:17;;;;;;;16.45;11.50;;;;;;;;;;4990597;28;20065;-58
2023/03/04 05:30:44;;;;;;;14.73;11.07;;;;;;;;;;4991246;28;20045;-58
2023/03/04 05:33:09;;;;;;;17.83;13.15;;;;;;;;;;4994368;28;20085;-57
2023/03/04 05:35:35;;;;;;;18.50;12.82;;;;;;;;;;4994596;28;20030;-58
2023/03/04 05:38:01;;;;;;;16.67;11.05;;;;;;;;;;4994325;28;20479;-57
2023/03/04 05:40:26;;;;;;;16.52;11.85;;;;;;;;;;4992889;28;20050;-58
2023/03/04 05:42:52;;;;;;;18.45;12.32;;;;;;;;;;4993927;28;20490;-58
2023/03/04 05:45:17;;;;;;;13.45;9.00;;;;;;;;;;4976854;28;20047;-62
2023/03/04 05:47:42;;;;;;;13.93;9.60;;;;;;;;;;4974711;28;20125;-62
2023/03/04 05:50:08;;;;;;;16.98;11.50;;;;;;;;;;4974548;28;20126;-63
2023/03/04 05:52:33;;;;;;;13.85;9.30;;;;;;;;;;4973830;28;20039;-62
2023/03/04 05:54:59;;;;;;;15.68;9.73;;;;;;;;;;4978465;28;20031;-62
2023/03/04 05:57:24;;;;;;;15.82;10.93;;;;;;;;;;4980629;28;20026;-62
2023/03/04 05:59:49;;;;;;;17.77;12.48;;;;;;;;;;4980979;28;20129;-62
2023/03/04 06:02:15;;;;;;;16.05;11.63;;;;;;;;;;4980918;28;20054;-62
2023/03/04 06:04:40;;;;;;;15.95;11.38;;;;;;;;;;4980228;28;20043;-57
2023/03/04 06:07:05;;;;;;;14.93;11.07;;;;;;;;;;4980821;28;20046;-57
2023/03/04 06:09:30;;;;;;;16.65;11.23;;;;;;;;;;4980702;28;20038;-58
2023/03/04 06:11:56;;;;;;;16.83;10.93;;;;;;;;;;4980552;28;20046;-57
2023/03/04 06:14:21;;;;;;;16.15;11.00;;;;;;;;;;4980697;28;20097;-57
2023/03/04 06:16:46;;;;;;;14.85;9.15;;;;;;;;;;4980738;28;20070;-57
2023/03/04 06:19:12;;;;;;;15.55;11.30;;;;;;;;;;4979640;28;20062;-57
2023/03/04 06:21:37;;;;;;;15.57;11.95;;;;;;;;;;4963410;28;20356;-58
2023/03/04 06:24:03;;;;;;;14.70;10.70;;;;;;;;;;4973387;28;20473;-57
2023/03/04 06:26:28;;;;;;;14.65;10.25;;;;;;;;;;4980993;28;20090;-58
2023/03/04 06:28:55;;;;;;;16.02;11.52;;;;;;;;;;4980932;28;20054;-58
2023/03/04 06:31:21;;;;;;;13.52;10.43;;;;;;;;;;4980173;28;20043;-59
2023/03/04 06:33:46;;;;;;;15.02;11.18;;;;;;;;;;4980648;28;20039;-58
2023/03/04 06:36:11;;;;;;;14.35;10.85;;;;;;;;;;4980268;28;20039;-58
2023/03/04 06:38:37;;;;;;;14.43;10.70;;;;;;;;;;4980654;28;20129;-58
2023/03/04 06:41:06;;;;;;;15.73;11.60;;;;;;;;;;4980433;28;20043;-57
2023/03/04 06:43:32;;;;;;;17.37;12.80;;;;;;;;;;4983347;28;20046;-57
2023/03/04 06:45:57;;;;;;;8.95;6.53;;;;;;;;;;4999455;28;20048;-57
2023/03/04 06:48:22;;;;;;;12.15;7.97;;;;;;;;;;4999774;28;20050;-58
2023/03/04 06:50:48;;;;;;;15.32;9.55;;;;;;;;;;4999729;28;20038;-57
2023/03/04 06:53:13;;;;;;;13.50;9.20;;;;;;;;;;4999975;28;20455;-57
2023/03/04 06:55:38;;;;;;;9.68;6.43;;;;;;;;;;5000051;28;20125;-57
2023/03/04 06:58:04;;;;;;;13.77;9.73;;;;;;;;;;4999477;28;20096;-60
2023/03/04 07:00:29;;;;;;;8.63;6.50;;;;;;;;;;4999581;28;20470;-58
2023/03/04 07:02:54;;;;;;;15.88;10.13;;;;;;;;;;4999681;28;20128;-57
2023/03/04 07:05:20;;;;;;;13.38;9.48;;;;;;;;;;4998531;28;20042;-57
2023/03/04 07:07:45;;;;;;;13.10;9.98;;;;;;;;;;4995888;28;20130;-57
2023/03/04 07:10:10;;;;;;;14.15;9.45;;;;;;;;;;4995958;28;20065;-57
2023/03/04 07:12:36;;;;;;;13.07;9.57;;;;;;;;;;4984532;28;20047;-57
2023/03/04 07:15:01;;;;;;;14.05;10.23;;;;;;;;;;4994991;28;20035;-58
2023/03/04 07:17:27;;;;;;;13.30;9.25;;;;;;;;;;4995535;28;20085;-56
2023/03/04 07:19:52;;;;;;;12.93;9.02;;;;;;;;;;4994997;28;20049;-56
2023/03/04 07:22:17;;;;;;;11.52;9.10;;;;;;;;;;4994770;28;20471;-56
2023/03/04 07:24:43;;;;;;;11.00;8.30;;;;;;;;;;4995925;28;20038;-56
2023/03/04 07:27:08;;;;;;;11.75;8.75;;;;;;;;;;4995346;28;20379;-56
2023/03/04 07:29:34;;;;;;;14.05;9.82;;;;;;;;;;4994328;28;20498;-56
2023/03/04 07:31:59;;;;;;;13.77;9.48;;;;;;;;;;4995224;28;20034;-56
2023/03/04 07:34:24;;;;;;;14.07;9.90;;;;;;;;;;4977332;28;20038;-56
2023/03/04 07:36:50;;;;;;;12.38;8.48;;;;;;;;;;4995647;28;20042;-57
2023/03/04 07:39:15;;;;;;;13.88;10.32;;;;;;;;;;4995830;28;20044;-56
2023/03/04 07:41:40;;;;;;;13.48;9.40;;;;;;;;;;4995794;28;20049;-56
2023/03/04 07:44:06;;;;;;;11.93;9.38;;;;;;;;;;4977390;28;20054;-56
2023/03/04 07:46:32;;;;;;;17.20;11.02;;;;;;;;;;4995650;28;20049;-56
2023/03/04 07:48:57;;;;;;;11.20;8.65;;;;;;;;;;4994750;28;20133;-58
2023/03/04 07:51:24;;;;;;;14.30;9.63;;;;;;;;;;4994961;28;20038;-56
2023/03/04 07:53:54;;;;;;;16.05;11.25;;;;;;;;;;4995764;28;20045;-56
2023/03/04 07:56:21;;;;;;;9.60;7.00;;;;;;;;;;4995381;28;20062;-58
2023/03/04 07:58:47;;;;;;;12.48;9.68;;;;;;;;;;4995093;28;20081;-58
2023/03/04 08:01:17;;;;;;;12.93;8.60;;;;;;;;;;4992467;28;20153;-58
2023/03/04 08:03:42;;;;;;;12.77;9.50;;;;;;;;;;4994567;28;20125;-58
2023/03/04 08:06:09;;;;;;;16.00;10.52;;;;;;;;;;4995225;28;20121;-58
2023/03/04 08:08:34;;;;;;;13.65;10.23;;;;;;;;;;4993982;28;20094;-58
2023/03/04 08:11:02;;;;;;;16.58;10.60;;;;;;;;;;4994341;28;20043;-58
2023/03/04 08:13:28;;;;;;;12.32;8.88;;;;;;;;;;4994756;28;20046;-58
2023/03/04 08:15:54;;;;;;;9.00;6.25;;;;;;;;;;4994380;28;20038;-58
2023/03/04 08:18:19;;;;;;;11.95;7.55;;;;;;;;;;4994669;28;20029;-58
2023/03/04 08:20:45;;;;;;;15.52;9.80;;;;;;;;;;4977737;28;20494;-58
2023/03/04 08:23:10;;;;;;;14.57;10.07;;;;;;;;;;4995214;28;20038;-58
2023/03/04 08:25:39;;;;;;;15.35;9.82;;;;;;;;;;4995167;28;20524;-58
2023/03/04 08:28:04;;;;;;;13.00;8.10;;;;;;;;;;4994165;28;20050;-58
2023/03/04 08:30:30;;;;;;;11.48;8.20;;;;;;;;;;4993822;28;20106;-58
2023/03/04 08:32:56;;;;;;;11.60;7.90;;;;;;;;;;4994263;28;20374;-58
2023/03/04 08:35:21;;;;;;;17.38;9.95;;;;;;;;;;4994761;28;20069;-58
2023/03/04 08:37:47;;;;;;;15.52;10.48;;;;;;;;;;4993894;28;20035;-64
2023/03/04 08:40:13;;;;;;;16.17;10.98;;;;;;;;;;4976963;28;20378;-64
2023/03/04 08:42:39;;;;;;;14.90;9.82;;;;;;;;;;4994438;28;20122;-62
2023/03/04 08:45:04;;;;;;;21.42;12.07;;;;;;;;;;4993821;28;20497;-64
2023/03/04 08:47:29;;;;;;;15.35;10.80;;;;;;;;;;4977055;28;20030;-64
2023/03/04 08:49:55;;;;;;;17.27;10.30;;;;;;;;;;4993771;28;20053;-64
2023/03/04 08:52:20;;;;;;;13.52;9.10;;;;;;;;;;4992650;28;20035;-64
2023/03/04 08:54:46;;;;;;;12.40;8.90;;;;;;;;;;4993635;28;20034;-64
2023/03/04 08:57:11;;;;;;;19.00;12.15;;;;;;;;;;4994220;28;20070;-64
2023/03/04 08:59:37;;;;;;;18.00;12.00;;;;;;;;;;4994654;28;20508;-61
2023/03/04 09:02:02;;;;;;;17.42;11.35;;;;;;;;;;4994175;28;20463;-64
2023/03/04 09:04:27;;;;;;;21.55;13.93;;;;;;;;;;4993782;28;20030;-62
2023/03/04 09:06:53;;;;;;;22.85;13.73;;;;;;;;;;4993702;28;20035;-62
2023/03/04 09:09:18;;;;;;;17.23;11.65;;;;;;;;;;4976506;28;20042;-63
2023/03/04 09:11:43;;;;;;;17.50;11.23;;;;;;;;;;4993711;28;20069;-64
2023/03/04 09:14:09;;;;;;;16.30;10.13;;;;;;;;;;4994451;28;20034;-64
2023/03/04 09:16:34;;;;;;;18.08;12.48;;;;;;;;;;4993960;28;20493;-63
2023/03/04 09:18:59;;;;;;;18.65;11.98;;;;;;;;;;4993335;28;20043;-64
2023/03/04 09:21:25;;;;;;;17.23;10.90;;;;;;;;;;4975567;28;20073;-64
2023/03/04 09:23:50;;;;;;;15.07;10.55;;;;;;;;;;4993713;28;20042;-64
2023/03/04 09:26:20;;;;;;;17.42;11.38;;;;;;;;;;4993720;28;20455;-64
2023/03/04 09:28:48;;;;;;;15.25;10.32;;;;;;;;;;4993404;28;20126;-64
2023/03/04 09:31:14;;;;;;;18.20;10.80;;;;;;;;;;4993531;28;20125;-64
2023/03/04 09:33:41;;;;;;;12.63;8.80;;;;;;;;;;4993703;28;20125;-64
2023/03/04 09:36:08;;;;;;;18.15;11.50;;;;;;;;;;4993487;28;20499;-64
2023/03/04 09:38:33;;;;;;;16.83;9.63;;;;;;;;;;4993276;28;20044;-64
2023/03/04 09:41:02;;;;;;;17.33;11.30;;;;;;;;;;4993939;28;20113;-64
2023/03/04 09:43:30;;;;;;;16.67;12.00;;;;;;;;;;4973572;28;20034;-64
2023/03/04 09:46:02;;;;;;;19.83;11.82;;;;;;;;;;4972298;28;20027;-62
2023/03/04 09:48:28;;;;;;;13.90;9.07;;;;;;;;;;4974589;28;20042;-62
2023/03/04 09:50:58;;;;;;;13.18;9.35;;;;;;;;;;4974472;28;20038;-62
2023/03/04 09:53:34;;;;;;;16.20;10.77;;;;;;;;;;4974736;28;20031;-62
2023/03/04 09:56:01;;;;;;;18.13;12.52;;;;;;;;;;4993861;28;20273;-62
2023/03/04 09:58:34;;;;;;;15.80;11.13;;;;;;;;;;4975834;28;20046;-62
2023/03/04 10:01:03;;;;;;;14.23;11.18;;;;;;;;;;4985139;28;20046;-62
2023/03/04 10:03:51;;;;;;;16.60;11.73;;;;;;;;;;4956624;28;20043;-62
2023/03/04 10:06:19;;;;;;;17.67;11.15;;;;;;;;;;4964982;28;20047;-62
2023/03/04 10:08:48;;;;;;;15.85;10.80;;;;;;;;;;4973218;28;20134;-62
2023/03/04 10:11:20;;;;;;;9.40;7.00;;;;;;;;;;4972551;28;20561;-62
2023/03/04 10:14:04;;;;;;;15.07;10.90;;;;;;;;;;4973457;28;20046;-62
2023/03/04 10:16:33;;;;;;;17.17;12.88;;;;;;;;;;4973151;28;20035;-62
2023/03/04 10:19:04;;;;;;;15.63;11.50;;;;;;;;;;4973754;28;20039;-61
2023/03/04 10:21:31;;;;;;;16.40;12.02;;;;;;;;;;4973820;28;20050;-62
2023/03/04 10:23:58;;;;;;;17.88;12.70;;;;;;;;;;4971907;28;20692;-62
2023/03/04 10:26:27;;;;;;;15.52;11.40;;;;;;;;;;4973260;28;20038;-62
2023/03/04 10:28:53;;;;;;;18.75;13.65;;;;;;;;;;4972387;28;20026;-62
2023/03/04 10:31:35;;;;;;;19.00;13.43;;;;;;;;;;4992890;28;20041;-61
2023/03/04 10:34:03;;;;;;;16.25;11.63;;;;;;;;;;4993471;28;20030;-61
2023/03/04 10:36:28;;;;;;;18.98;13.52;;;;;;;;;;4975796;28;20117;-62
2023/03/04 10:38:55;;;;;;;20.42;13.90;;;;;;;;;;4956329;28;20534;-61
2023/03/04 10:41:23;;;;;;;17.02;12.70;;;;;;;;;;4976225;28;20046;-61
2023/03/04 10:44:07;;;;;;;16.13;12.30;;;;;;;;;;4981772;28;20181;-61
2023/03/04 10:46:36;;;;;;;19.40;13.52;;;;;;;;;;4995843;28;20034;-61
2023/03/04 10:49:02;;;;;;;16.02;11.98;;;;;;;;;;4995744;28;20047;-61
2023/03/04 10:51:28;;;;;;;17.20;12.75;;;;;;;;;;5013071;28;20096;-57
2023/03/04 10:53:59;;;;;;;15.75;11.07;;;;;;;;;;5015115;28;20042;-56
2023/03/04 10:56:47;;;;;;;19.10;12.93;;;;;;;;;;5013752;28;20041;-56
2023/03/04 10:59:34;;;;;;;18.40;11.70;;;;;;;;;;5015641;28;20109;-56
2023/03/04 11:02:01;;;;;;;17.60;11.57;;;;;;;;;;4998202;28;20086;-57
2023/03/04 11:04:31;;;;;;;15.90;11.55;;;;;;;;;;5001423;28;20096;-57
2023/03/04 11:06:56;;;;;;;19.83;14.40;;;;;;;;;;4994207;28;20049;-57
2023/03/04 11:09:21;;;;;;;18.48;10.27;;;;;;;;;;4995252;28;20121;-57
2023/03/04 11:11:48;;;;;;;21.30;14.63;;;;;;;;;;4995047;28;20089;-57
2023/03/04 11:14:21;;;;;;;20.45;14.73;;;;;;;;;;4993555;28;20038;-57
2023/03/04 11:16:57;;;;;;;18.40;14.07;;;;;;;;;;4995092;28;20731;-56
2023/03/04 11:19:27;;;;;;;8.52;5.55;;;;;;;;;;4996348;28;20360;-57
2023/03/04 11:21:52;;;;;;;22.33;13.43;;;;;;;;;;5010149;28;20034;-57
2023/03/04 11:24:20;;;;;;;20.13;15.35;;;;;;;;;;5015672;28;20538;-57
2023/03/04 11:26:52;;;;;;;21.10;14.95;;;;;;;;;;5030652;28;20045;-57
2023/03/04 11:29:19;;;;;;;20.42;15.25;;;;;;;;;;5014361;28;20045;-61
2023/03/04 11:31:44;;;;;;;20.50;16.33;;;;;;;;;;4978061;28;20046;-61
2023/03/04 11:34:28;;;;;;;23.90;16.92;;;;;;;;;;5005346;28;20042;-62
2023/03/04 11:37:02;;;;;;;30.73;20.83;;;;;;;;;;5016100;28;20033;-62
2023/03/04 11:39:37;;;;;;;27.92;19.65;;;;;;;;;;4998659;28;20398;-63
2023/03/04 11:42:21;;;;;;;16.98;12.73;;;;;;;;;;5015897;28;20034;-61
2023/03/04 11:44:46;;;;;;;28.70;20.17;;;;;;;;;;5002409;28;20057;-61
2023/03/04 11:47:12;;;;;;;26.88;18.50;;;;;;;;;;4995823;28;20042;-60
2023/03/04 11:49:56;;;;;;;26.20;18.00;;;;;;;;;;4946658;28;20061;-61
2023/03/04 11:52:34;;;;;;;26.40;18.15;;;;;;;;;;4975034;28;20050;-61
2023/03/04 11:55:22;;;;;;;30.52;21.00;;;;;;;;;;4959224;28;20508;-60
2023/03/04 11:57:50;;;;;;;27.08;17.92;;;;;;;;;;4948571;28;20380;-60
2023/03/04 12:00:28;;;;;;;35.53;24.05;;;;;;;;;;4976291;28;20038;-61
2023/03/04 12:03:12;;;;;;;27.92;20.70;;;;;;;;;;4976736;28;20039;-60
2023/03/04 12:05:40;;;;;;;27.13;19.52;;;;;;;;;;4973053;28;20039;-60
2023/03/04 12:08:20;;;;;;;23.83;16.05;;;;;;;;;;4975638;28;20046;-61
2023/03/04 12:10:57;;;;;;;26.80;19.08;;;;;;;;;;4978453;28;20049;-61
2023/03/04 12:13:35;;;;;;;27.17;19.10;;;;;;;;;;4995112;28;20046;-61
2023/03/04 12:16:06;;;;;;;32.05;22.08;;;;;;;;;;4995669;28;20467;-60
2023/03/04 12:18:42;;;;;;;32.85;22.67;;;;;;;;;;4974680;28;20097;-60
2023/03/04 12:21:27;;;;;;;28.85;19.05;;;;;;;;;;4975865;28;20039;-61
2023/03/04 12:24:11;;;;;;;26.75;17.95;;;;;;;;;;4975855;28;20479;-61
2023/03/04 12:26:46;;;;;;;27.85;19.42;;;;;;;;;;4976240;28;20057;-61
2023/03/04 12:29:11;;;;;;;27.88;18.55;;;;;;;;;;4975393;28;20078;-61
2023/03/04 12:31:48;;;;;;;26.42;17.42;;;;;;;;;;4976101;28;20451;-61
2023/03/04 12:34:36;;;;;;;26.60;17.23;;;;;;;;;;4956000;29;20039;-69
2023/03/04 12:37:20;;;;;;;23.00;15.95;;;;;;;;;;4967519;28;20043;-70
2023/03/04 12:39:46;;;;;;;28.58;18.77;;;;;;;;;;4976292;28;20038;-70
2023/03/04 12:42:15;;;;;;;28.38;18.92;;;;;;;;;;4942831;28;20427;-66
2023/03/04 12:44:45;;;;;;;32.08;20.33;;;;;;;;;;4987275;28;20042;-62
2023/03/04 12:47:23;;;;;;;26.08;16.45;;;;;;;;;;4995355;28;20065;-62
2023/03/04 12:49:59;;;;;;;28.10;18.83;;;;;;;;;;4994558;28;20047;-62
2023/03/04 12:52:24;;;;;;;25.95;17.48;;;;;;;;;;4992725;28;20050;-57
2023/03/04 12:54:56;;;;;;;32.22;20.17;;;;;;;;;;4994246;28;20110;-57
2023/03/04 12:57:30;;;;;;;30.45;19.55;;;;;;;;;;4995248;28;20453;-57
2023/03/04 13:00:15;;;;;;;35.17;21.77;;;;;;;;;;4995184;28;20043;-56
2023/03/04 13:02:41;;;;;;;35.83;19.85;;;;;;;;;;4978011;28;20459;-56
2023/03/04 13:05:21;;;;;;;34.38;21.83;;;;;;;;;;4994515;28;20045;-56
2023/03/04 13:08:04;;;;;;;32.65;20.95;;;;;;;;;;4994603;28;20050;-57
2023/03/04 13:10:31;;;;;;;33.67;21.35;;;;;;;;;;4994117;28;20112;-56
2023/03/04 13:13:00;;;;;;;33.30;20.75;;;;;;;;;;4977291;28;20057;-57
2023/03/04 13:15:25;;;;;;;27.90;18.30;;;;;;;;;;4975535;28;20585;-57
2023/03/04 13:17:53;;;;;;;33.55;19.88;;;;;;;;;;4974953;28;20038;-56
2023/03/04 13:20:32;;;;;;;38.00;22.75;;;;;;;;;;4992512;28;20058;-56
2023/03/04 13:23:03;;;;;;;35.70;21.67;;;;;;;;;;4991654;28;20065;-56
2023/03/04 13:25:41;;;;;;;36.78;21.70;;;;;;;;;;4991693;28;20104;-57
2023/03/04 13:28:12;;;;;;;31.23;18.23;;;;;;;;;;4991387;28;20050;-56
2023/03/04 13:30:38;;;;;;;35.42;21.15;;;;;;;;;;4991398;28;20125;-56
2023/03/04 13:33:09;;;;;;;32.47;18.95;;;;;;;;;;4976049;28;20074;-56
2023/03/04 13:35:47;;;;;;;38.83;21.73;;;;;;;;;;4992759;28;20042;-56
2023/03/04 13:38:32;;;;;;;42.22;25.40;;;;;;;;;;4993753;28;20038;-56
2023/03/04 13:41:14;;;;;;;33.00;20.15;;;;;;;;;;4993964;28;20034;-57
2023/03/04 13:43:44;;;;;;;30.67;19.27;;;;;;;;;;4993821;28;20101;-57
2023/03/04 13:46:18;;;;;;;31.17;19.40;;;;;;;;;;4985825;28;20069;-56
2023/03/04 13:48:49;;;;;;;31.63;19.85;;;;;;;;;;4976648;28;20653;-56
2023/03/04 13:51:21;;;;;;;28.23;16.92;;;;;;;;;;4977110;28;20043;-56
2023/03/04 13:53:58;;;;;;;29.25;17.65;;;;;;;;;;4977139;28;20054;-56
2023/03/04 13:56:31;;;;;;;26.92;17.48;;;;;;;;;;4994425;28;20117;-56
2023/03/04 13:59:02;;;;;;;28.23;17.10;;;;;;;;;;4993995;28;20042;-56
2023/03/04 14:01:30;;;;;;;28.42;18.27;;;;;;;;;;4994400;28;20078;-56
2023/03/04 14:03:56;;;;;;;25.33;16.15;;;;;;;;;;4993565;28;20092;-56
2023/03/04 14:06:29;;;;;;;26.73;17.92;;;;;;;;;;4993756;28;20389;-56
2023/03/04 14:08:56;;;;;;;26.45;16.50;;;;;;;;;;4994418;28;20042;-56
2023/03/04 14:11:24;;;;;;;26.00;15.18;;;;;;;;;;4993143;28;20042;-56
2023/03/04 14:13:50;;;;;;;28.60;17.50;;;;;;;;;;4993541;28;20047;-61
2023/03/04 14:16:19;;;;;;;28.13;17.05;;;;;;;;;;4997086;28;20038;-62
2023/03/04 14:18:44;;;;;;;24.50;15.63;;;;;;;;;;4998238;28;20049;-61
2023/03/04 14:21:13;;;;;;;26.05;16.92;;;;;;;;;;4997907;28;20042;-62
2023/03/04 14:23:38;;;;;;;28.63;18.33;;;;;;;;;;4998388;28;20047;-62